sensor_id;sensor_type;location;lat;lon;timestamp;P1;durP1;ratioP1;P2;durP2;ratioP2
76094;SDS011;64821;13.710;100.604;2023-07-13T00:00:23;7.43;;;2.72;;
76094;SDS011;64821;13.710;100.604;2023-07-13T00:01:27;7.25;;;2.53;;
76094;SDS011;64821;13.710;100.604;2023-07-13T00:02:31;7.23;;;2.30;;
76094;SDS011;64821;13.710;100.604;2023-07-13T00:03:35;7.70;;;2.40;;
76094;SDS011;64821;13.710;100.604;2023-07-13T00:04:40;7.20;;;2.17;;
76094;SDS011;64821;13.710;100.604;2023-07-13T00:05:44;13.82;;;2.40;;
76094;SDS011;64821;13.710;100.604;2023-07-13T00:06:48;8.50;;;2.13;;
76094;SDS011;64821;13.710;100.604;2023-07-13T00:07:52;7.20;;;2.57;;
76094;SDS011;64821;13.710;100.604;2023-07-13T00:08:56;8.65;;;2.40;;
76094;SDS011;64821;13.710;100.604;2023-07-13T00:09:59;7.78;;;2.30;;
76094;SDS011;64821;13.710;100.604;2023-07-13T00:11:07;8.77;;;2.50;;
76094;SDS011;64821;13.710;100.604;2023-07-13T00:12:21;7.85;;;2.55;;
76094;SDS011;64821;13.710;100.604;2023-07-13T00:13:26;7.20;;;2.23;;
76094;SDS011;64821;13.710;100.604;2023-07-13T00:14:30;7.07;;;2.08;;
76094;SDS011;64821;13.710;100.604;2023-07-13T00:15:34;8.98;;;2.70;;
76094;SDS011;64821;13.710;100.604;2023-07-13T00:16:39;6.97;;;2.38;;
76094;SDS011;64821;13.710;100.604;2023-07-13T00:17:43;6.95;;;2.28;;
76094;SDS011;64821;13.710;100.604;2023-07-13T00:18:47;8.67;;;2.30;;
76094;SDS011;64821;13.710;100.604;2023-07-13T00:19:52;8.15;;;2.20;;
76094;SDS011;64821;13.710;100.604;2023-07-13T00:20:56;7.13;;;2.45;;
76094;SDS011;64821;13.710;100.604;2023-07-13T00:22:00;8.00;;;2.20;;
76094;SDS011;64821;13.710;100.604;2023-07-13T00:23:03;7.50;;;2.42;;
76094;SDS011;64821;13.710;100.604;2023-07-13T00:24:07;8.50;;;2.30;;
76094;SDS011;64821;13.710;100.604;2023-07-13T00:25:13;6.93;;;2.17;;
76094;SDS011;64821;13.710;100.604;2023-07-13T00:26:19;7.32;;;2.40;;
76094;SDS011;64821;13.710;100.604;2023-07-13T00:27:23;7.72;;;2.25;;
76094;SDS011;64821;13.710;100.604;2023-07-13T00:28:27;7.70;;;2.30;;
76094;SDS011;64821;13.710;100.604;2023-07-13T00:29:31;6.57;;;2.10;;
76094;SDS011;64821;13.710;100.604;2023-07-13T00:30:34;9.52;;;2.30;;
76094;SDS011;64821;13.710;100.604;2023-07-13T00:31:38;9.55;;;2.42;;
76094;SDS011;64821;13.710;100.604;2023-07-13T00:32:42;7.35;;;2.40;;
76094;SDS011;64821;13.710;100.604;2023-07-13T00:33:46;7.25;;;2.20;;
76094;SDS011;64821;13.710;100.604;2023-07-13T00:34:49;9.40;;;2.30;;
76094;SDS011;64821;13.710;100.604;2023-07-13T00:35:55;7.28;;;2.47;;
76094;SDS011;64821;13.710;100.604;2023-07-13T00:36:59;7.13;;;2.38;;
76094;SDS011;64821;13.710;100.604;2023-07-13T00:38:03;7.18;;;2.03;;
76094;SDS011;64821;13.710;100.604;2023-07-13T00:39:07;6.95;;;2.17;;
76094;SDS011;64821;13.710;100.604;2023-07-13T00:40:11;6.00;;;2.07;;
76094;SDS011;64821;13.710;100.604;2023-07-13T00:41:16;7.72;;;2.38;;
76094;SDS011;64821;13.710;100.604;2023-07-13T00:42:20;7.38;;;2.10;;
76094;SDS011;64821;13.710;100.604;2023-07-13T00:43:25;7.00;;;2.40;;
76094;SDS011;64821;13.710;100.604;2023-07-13T00:44:30;7.82;;;2.60;;
76094;SDS011;64821;13.710;100.604;2023-07-13T00:47:14;8.02;;;2.22;;
76094;SDS011;64821;13.710;100.604;2023-07-13T00:48:19;6.68;;;2.20;;
76094;SDS011;64821;13.710;100.604;2023-07-13T00:49:26;8.40;;;2.30;;
76094;SDS011;64821;13.710;100.604;2023-07-13T00:50:34;6.80;;;2.13;;
76094;SDS011;64821;13.710;100.604;2023-07-13T00:51:39;7.37;;;2.27;;
76094;SDS011;64821;13.710;100.604;2023-07-13T00:52:53;8.32;;;2.50;;
76094;SDS011;64821;13.710;100.604;2023-07-13T00:53:59;6.90;;;2.58;;
76094;SDS011;64821;13.710;100.604;2023-07-13T00:55:07;6.70;;;2.30;;
76094;SDS011;64821;13.710;100.604;2023-07-13T00:56:12;7.25;;;2.53;;
76094;SDS011;64821;13.710;100.604;2023-07-13T00:57:16;6.83;;;2.40;;
76094;SDS011;64821;13.710;100.604;2023-07-13T00:58:23;6.45;;;2.35;;
76094;SDS011;64821;13.710;100.604;2023-07-13T00:59:29;8.32;;;2.40;;
76094;SDS011;64821;13.710;100.604;2023-07-13T01:00:34;7.55;;;2.10;;
76094;SDS011;64821;13.710;100.604;2023-07-13T01:01:39;6.80;;;2.17;;
76094;SDS011;64821;13.710;100.604;2023-07-13T01:02:44;6.80;;;2.10;;
76094;SDS011;64821;13.710;100.604;2023-07-13T01:03:48;6.68;;;2.03;;
76094;SDS011;64821;13.710;100.604;2023-07-13T01:04:55;7.45;;;2.25;;
76094;SDS011;64821;13.710;100.604;2023-07-13T01:06:01;7.22;;;2.40;;
76094;SDS011;64821;13.710;100.604;2023-07-13T01:07:05;7.72;;;2.50;;
76094;SDS011;64821;13.710;100.604;2023-07-13T01:08:09;7.80;;;2.10;;
76094;SDS011;64821;13.710;100.604;2023-07-13T01:09:13;7.40;;;2.20;;
76094;SDS011;64821;13.710;100.604;2023-07-13T01:10:18;7.20;;;2.17;;
76094;SDS011;64821;13.710;100.604;2023-07-13T01:11:25;7.22;;;2.17;;
76094;SDS011;64821;13.710;100.604;2023-07-13T01:12:30;7.70;;;2.53;;
76094;SDS011;64821;13.710;100.604;2023-07-13T01:13:34;6.97;;;2.30;;
76094;SDS011;64821;13.710;100.604;2023-07-13T01:14:39;6.97;;;2.30;;
76094;SDS011;64821;13.710;100.604;2023-07-13T01:15:45;6.70;;;2.10;;
76094;SDS011;64821;13.710;100.604;2023-07-13T01:16:50;6.68;;;2.10;;
76094;SDS011;64821;13.710;100.604;2023-07-13T01:17:54;7.28;;;2.30;;
76094;SDS011;64821;13.710;100.604;2023-07-13T01:18:58;8.00;;;2.30;;
76094;SDS011;64821;13.710;100.604;2023-07-13T01:20:02;7.30;;;2.20;;
76094;SDS011;64821;13.710;100.604;2023-07-13T01:21:08;8.80;;;2.40;;
76094;SDS011;64821;13.710;100.604;2023-07-13T01:22:12;6.85;;;2.10;;
76094;SDS011;64821;13.710;100.604;2023-07-13T01:23:17;8.25;;;2.30;;
76094;SDS011;64821;13.710;100.604;2023-07-13T01:24:21;7.23;;;2.20;;
76094;SDS011;64821;13.710;100.604;2023-07-13T01:25:25;8.88;;;2.08;;
76094;SDS011;64821;13.710;100.604;2023-07-13T01:26:29;8.00;;;2.50;;
76094;SDS011;64821;13.710;100.604;2023-07-13T01:27:33;6.38;;;2.13;;
76094;SDS011;64821;13.710;100.604;2023-07-13T01:28:37;8.45;;;2.45;;
76094;SDS011;64821;13.710;100.604;2023-07-13T01:29:41;6.73;;;2.03;;
76094;SDS011;64821;13.710;100.604;2023-07-13T01:30:47;8.10;;;2.30;;
76094;SDS011;64821;13.710;100.604;2023-07-13T01:31:51;6.55;;;2.20;;
76094;SDS011;64821;13.710;100.604;2023-07-13T01:32:55;8.77;;;2.50;;
76094;SDS011;64821;13.710;100.604;2023-07-13T01:33:59;8.20;;;2.50;;
76094;SDS011;64821;13.710;100.604;2023-07-13T01:35:03;8.13;;;2.40;;
76094;SDS011;64821;13.710;100.604;2023-07-13T01:36:09;7.25;;;2.10;;
76094;SDS011;64821;13.710;100.604;2023-07-13T01:37:14;9.77;;;2.72;;
76094;SDS011;64821;13.710;100.604;2023-07-13T01:38:20;6.57;;;2.13;;
76094;SDS011;64821;13.710;100.604;2023-07-13T01:39:25;7.80;;;2.40;;
76094;SDS011;64821;13.710;100.604;2023-07-13T01:40:28;7.10;;;2.63;;
76094;SDS011;64821;13.710;100.604;2023-07-13T01:41:32;7.13;;;2.28;;
76094;SDS011;64821;13.710;100.604;2023-07-13T01:42:36;8.73;;;2.50;;
76094;SDS011;64821;13.710;100.604;2023-07-13T01:43:40;9.30;;;2.10;;
76094;SDS011;64821;13.710;100.604;2023-07-13T01:44:44;5.43;;;1.75;;
76094;SDS011;64821;13.710;100.604;2023-07-13T01:45:48;6.63;;;2.10;;
76094;SDS011;64821;13.710;100.604;2023-07-13T01:46:52;6.30;;;1.90;;
76094;SDS011;64821;13.710;100.604;2023-07-13T01:47:56;7.97;;;2.25;;
76094;SDS011;64821;13.710;100.604;2023-07-13T01:49:01;6.63;;;2.00;;
76094;SDS011;64821;13.710;100.604;2023-07-13T01:50:05;7.47;;;2.40;;
76094;SDS011;64821;13.710;100.604;2023-07-13T01:51:10;6.67;;;2.07;;
76094;SDS011;64821;13.710;100.604;2023-07-13T01:52:14;8.85;;;2.33;;
76094;SDS011;64821;13.710;100.604;2023-07-13T01:53:18;7.65;;;2.05;;
76094;SDS011;64821;13.710;100.604;2023-07-13T01:54:22;8.02;;;2.40;;
76094;SDS011;64821;13.710;100.604;2023-07-13T01:55:26;7.57;;;2.50;;
76094;SDS011;64821;13.710;100.604;2023-07-13T01:56:30;6.60;;;2.27;;
76094;SDS011;64821;13.710;100.604;2023-07-13T01:57:37;7.10;;;1.95;;
76094;SDS011;64821;13.710;100.604;2023-07-13T01:58:40;6.65;;;1.92;;
76094;SDS011;64821;13.710;100.604;2023-07-13T01:59:44;7.63;;;2.17;;
76094;SDS011;64821;13.710;100.604;2023-07-13T02:00:48;7.18;;;2.17;;
76094;SDS011;64821;13.710;100.604;2023-07-13T02:01:53;7.97;;;2.00;;
76094;SDS011;64821;13.710;100.604;2023-07-13T02:02:58;7.82;;;2.50;;
76094;SDS011;64821;13.710;100.604;2023-07-13T02:04:02;7.88;;;2.30;;
76094;SDS011;64821;13.710;100.604;2023-07-13T02:05:06;8.15;;;2.30;;
76094;SDS011;64821;13.710;100.604;2023-07-13T02:06:12;7.40;;;1.95;;
76094;SDS011;64821;13.710;100.604;2023-07-13T02:07:16;6.57;;;2.07;;
76094;SDS011;64821;13.710;100.604;2023-07-13T02:08:20;6.38;;;2.25;;
76094;SDS011;64821;13.710;100.604;2023-07-13T02:09:24;7.93;;;2.40;;
76094;SDS011;64821;13.710;100.604;2023-07-13T02:10:27;6.65;;;2.20;;
76094;SDS011;64821;13.710;100.604;2023-07-13T02:11:32;7.70;;;2.20;;
76094;SDS011;64821;13.710;100.604;2023-07-13T02:12:36;7.73;;;2.20;;
76094;SDS011;64821;13.710;100.604;2023-07-13T02:13:40;5.93;;;2.10;;
76094;SDS011;64821;13.710;100.604;2023-07-13T02:14:44;7.40;;;2.20;;
76094;SDS011;64821;13.710;100.604;2023-07-13T02:15:49;7.68;;;2.10;;
76094;SDS011;64821;13.710;100.604;2023-07-13T02:16:54;6.57;;;2.17;;
76094;SDS011;64821;13.710;100.604;2023-07-13T02:17:58;6.40;;;1.90;;
76094;SDS011;64821;13.710;100.604;2023-07-13T02:19:02;6.93;;;1.90;;
76094;SDS011;64821;13.710;100.604;2023-07-13T02:20:06;7.80;;;2.40;;
76094;SDS011;64821;13.710;100.604;2023-07-13T02:21:12;7.85;;;2.30;;
76094;SDS011;64821;13.710;100.604;2023-07-13T02:22:16;6.20;;;2.20;;
76094;SDS011;64821;13.710;100.604;2023-07-13T02:23:20;8.47;;;2.50;;
76094;SDS011;64821;13.710;100.604;2023-07-13T02:24:24;8.55;;;2.40;;
76094;SDS011;64821;13.710;100.604;2023-07-13T02:25:27;6.63;;;2.10;;
76094;SDS011;64821;13.710;100.604;2023-07-13T02:26:31;7.72;;;2.10;;
76094;SDS011;64821;13.710;100.604;2023-07-13T02:27:35;7.38;;;2.30;;
76094;SDS011;64821;13.710;100.604;2023-07-13T02:28:42;8.23;;;2.37;;
76094;SDS011;64821;13.710;100.604;2023-07-13T02:29:45;8.80;;;2.67;;
76094;SDS011;64821;13.710;100.604;2023-07-13T02:30:49;7.38;;;2.10;;
76094;SDS011;64821;13.710;100.604;2023-07-13T02:31:53;8.00;;;2.20;;
76094;SDS011;64821;13.710;100.604;2023-07-13T02:32:57;7.20;;;2.28;;
76094;SDS011;64821;13.710;100.604;2023-07-13T02:34:01;8.03;;;2.30;;
76094;SDS011;64821;13.710;100.604;2023-07-13T02:35:05;6.97;;;2.40;;
76094;SDS011;64821;13.710;100.604;2023-07-13T02:36:09;10.68;;;2.70;;
76094;SDS011;64821;13.710;100.604;2023-07-13T02:37:16;7.75;;;2.40;;
76094;SDS011;64821;13.710;100.604;2023-07-13T02:38:19;8.15;;;2.60;;
76094;SDS011;64821;13.710;100.604;2023-07-13T02:39:23;9.27;;;2.37;;
76094;SDS011;64821;13.710;100.604;2023-07-13T02:40:27;7.50;;;2.08;;
76094;SDS011;64821;13.710;100.604;2023-07-13T02:41:30;9.20;;;2.35;;
76094;SDS011;64821;13.710;100.604;2023-07-13T02:42:34;7.82;;;2.20;;
76094;SDS011;64821;13.710;100.604;2023-07-13T02:43:40;7.40;;;2.53;;
76094;SDS011;64821;13.710;100.604;2023-07-13T02:44:44;6.47;;;2.40;;
76094;SDS011;64821;13.710;100.604;2023-07-13T02:45:48;7.13;;;2.45;;
76094;SDS011;64821;13.710;100.604;2023-07-13T02:46:52;8.05;;;2.35;;
76094;SDS011;64821;13.710;100.604;2023-07-13T02:47:56;6.80;;;2.25;;
76094;SDS011;64821;13.710;100.604;2023-07-13T02:48:59;8.70;;;2.35;;
76094;SDS011;64821;13.710;100.604;2023-07-13T02:50:04;8.30;;;2.20;;
76094;SDS011;64821;13.710;100.604;2023-07-13T02:51:08;8.73;;;2.35;;
76094;SDS011;64821;13.710;100.604;2023-07-13T02:52:12;7.50;;;2.40;;
76094;SDS011;64821;13.710;100.604;2023-07-13T02:53:18;8.13;;;2.40;;
76094;SDS011;64821;13.710;100.604;2023-07-13T02:54:21;8.13;;;2.13;;
76094;SDS011;64821;13.710;100.604;2023-07-13T02:55:25;6.87;;;2.43;;
76094;SDS011;64821;13.710;100.604;2023-07-13T02:56:29;7.88;;;2.40;;
76094;SDS011;64821;13.710;100.604;2023-07-13T02:57:34;8.18;;;2.30;;
76094;SDS011;64821;13.710;100.604;2023-07-13T02:58:38;8.50;;;2.50;;
76094;SDS011;64821;13.710;100.604;2023-07-13T02:59:42;9.50;;;2.53;;
76094;SDS011;64821;13.710;100.604;2023-07-13T03:00:46;8.70;;;2.30;;
76094;SDS011;64821;13.710;100.604;2023-07-13T03:01:51;7.50;;;2.47;;
76094;SDS011;64821;13.710;100.604;2023-07-13T03:02:55;8.27;;;2.30;;
76094;SDS011;64821;13.710;100.604;2023-07-13T03:03:59;8.48;;;2.30;;
76094;SDS011;64821;13.710;100.604;2023-07-13T03:05:04;6.88;;;2.30;;
76094;SDS011;64821;13.710;100.604;2023-07-13T03:06:08;7.73;;;2.10;;
76094;SDS011;64821;13.710;100.604;2023-07-13T03:07:12;9.15;;;2.50;;
76094;SDS011;64821;13.710;100.604;2023-07-13T03:08:17;6.30;;;2.08;;
76094;SDS011;64821;13.710;100.604;2023-07-13T03:09:21;7.10;;;2.22;;
76094;SDS011;64821;13.710;100.604;2023-07-13T03:10:25;7.40;;;2.00;;
76094;SDS011;64821;13.710;100.604;2023-07-13T03:11:28;6.63;;;2.10;;
76094;SDS011;64821;13.710;100.604;2023-07-13T03:12:33;7.00;;;2.13;;
76094;SDS011;64821;13.710;100.604;2023-07-13T03:13:37;6.43;;;2.22;;
76094;SDS011;64821;13.710;100.604;2023-07-13T03:14:40;5.97;;;2.25;;
76094;SDS011;64821;13.710;100.604;2023-07-13T03:15:48;9.77;;;2.78;;
76094;SDS011;64821;13.710;100.604;2023-07-13T03:16:51;6.47;;;2.17;;
76094;SDS011;64821;13.710;100.604;2023-07-13T03:17:55;7.90;;;2.22;;
76094;SDS011;64821;13.710;100.604;2023-07-13T03:18:59;8.15;;;2.40;;
76094;SDS011;64821;13.710;100.604;2023-07-13T03:20:03;6.65;;;2.10;;
76094;SDS011;64821;13.710;100.604;2023-07-13T03:21:08;7.63;;;2.38;;
76094;SDS011;64821;13.710;100.604;2023-07-13T03:22:12;7.90;;;2.50;;
76094;SDS011;64821;13.710;100.604;2023-07-13T03:23:18;7.03;;;2.28;;
76094;SDS011;64821;13.710;100.604;2023-07-13T03:24:22;8.07;;;2.47;;
76094;SDS011;64821;13.710;100.604;2023-07-13T03:25:26;6.20;;;2.25;;
76094;SDS011;64821;13.710;100.604;2023-07-13T03:26:29;6.95;;;2.10;;
76094;SDS011;64821;13.710;100.604;2023-07-13T03:27:33;9.83;;;2.40;;
76094;SDS011;64821;13.710;100.604;2023-07-13T03:28:37;6.93;;;2.30;;
76094;SDS011;64821;13.710;100.604;2023-07-13T03:29:41;7.93;;;2.20;;
76094;SDS011;64821;13.710;100.604;2023-07-13T03:30:44;6.20;;;2.25;;
76094;SDS011;64821;13.710;100.604;2023-07-13T03:31:48;8.55;;;2.50;;
76094;SDS011;64821;13.710;100.604;2023-07-13T03:32:52;7.70;;;2.40;;
76094;SDS011;64821;13.710;100.604;2023-07-13T03:33:56;7.60;;;2.38;;
76094;SDS011;64821;13.710;100.604;2023-07-13T03:35:00;7.28;;;2.42;;
76094;SDS011;64821;13.710;100.604;2023-07-13T03:36:04;7.95;;;2.05;;
76094;SDS011;64821;13.710;100.604;2023-07-13T03:37:08;6.55;;;2.13;;
76094;SDS011;64821;13.710;100.604;2023-07-13T03:38:12;7.80;;;2.60;;
76094;SDS011;64821;13.710;100.604;2023-07-13T03:39:18;8.18;;;2.67;;
76094;SDS011;64821;13.710;100.604;2023-07-13T03:40:21;9.50;;;2.72;;
76094;SDS011;64821;13.710;100.604;2023-07-13T03:41:25;7.22;;;2.20;;
76094;SDS011;64821;13.710;100.604;2023-07-13T03:42:29;8.20;;;2.80;;
76094;SDS011;64821;13.710;100.604;2023-07-13T03:43:33;9.43;;;2.50;;
76094;SDS011;64821;13.710;100.604;2023-07-13T03:44:36;6.78;;;2.33;;
76094;SDS011;64821;13.710;100.604;2023-07-13T03:45:41;7.10;;;2.35;;
76094;SDS011;64821;13.710;100.604;2023-07-13T03:46:45;8.00;;;2.28;;
76094;SDS011;64821;13.710;100.604;2023-07-13T03:47:49;8.80;;;2.40;;
76094;SDS011;64821;13.710;100.604;2023-07-13T03:48:53;8.03;;;2.70;;
76094;SDS011;64821;13.710;100.604;2023-07-13T03:49:56;8.30;;;2.38;;
76094;SDS011;64821;13.710;100.604;2023-07-13T03:51:03;6.18;;;2.28;;
76094;SDS011;64821;13.710;100.604;2023-07-13T03:52:07;6.40;;;2.22;;
76094;SDS011;64821;13.710;100.604;2023-07-13T03:53:10;8.35;;;2.60;;
76094;SDS011;64821;13.710;100.604;2023-07-13T03:54:14;7.33;;;2.00;;
76094;SDS011;64821;13.710;100.604;2023-07-13T03:55:20;7.40;;;2.60;;
76094;SDS011;64821;13.710;100.604;2023-07-13T03:56:24;8.50;;;2.40;;
76094;SDS011;64821;13.710;100.604;2023-07-13T03:57:27;7.60;;;2.35;;
76094;SDS011;64821;13.710;100.604;2023-07-13T03:58:32;7.57;;;2.35;;
76094;SDS011;64821;13.710;100.604;2023-07-13T03:59:37;6.50;;;2.40;;
76094;SDS011;64821;13.710;100.604;2023-07-13T04:00:40;6.57;;;2.28;;
76094;SDS011;64821;13.710;100.604;2023-07-13T04:01:44;7.75;;;2.60;;
76094;SDS011;64821;13.710;100.604;2023-07-13T04:02:48;8.48;;;2.58;;
76094;SDS011;64821;13.710;100.604;2023-07-13T04:03:52;6.82;;;2.10;;
76094;SDS011;64821;13.710;100.604;2023-07-13T04:04:56;7.03;;;2.53;;
76094;SDS011;64821;13.710;100.604;2023-07-13T04:06:00;7.18;;;2.38;;
76094;SDS011;64821;13.710;100.604;2023-07-13T04:07:05;8.18;;;2.45;;
76094;SDS011;64821;13.710;100.604;2023-07-13T04:08:09;7.75;;;2.40;;
76094;SDS011;64821;13.710;100.604;2023-07-13T04:09:12;6.95;;;2.50;;
76094;SDS011;64821;13.710;100.604;2023-07-13T04:10:16;6.30;;;2.40;;
76094;SDS011;64821;13.710;100.604;2023-07-13T04:11:23;7.53;;;2.60;;
76094;SDS011;64821;13.710;100.604;2023-07-13T04:12:28;6.90;;;2.33;;
76094;SDS011;64821;13.710;100.604;2023-07-13T04:13:32;7.07;;;2.75;;
76094;SDS011;64821;13.710;100.604;2023-07-13T04:14:36;7.40;;;2.30;;
76094;SDS011;64821;13.710;100.604;2023-07-13T04:15:39;9.73;;;2.77;;
76094;SDS011;64821;13.710;100.604;2023-07-13T04:16:43;7.53;;;2.47;;
76094;SDS011;64821;13.710;100.604;2023-07-13T04:17:47;6.47;;;2.70;;
76094;SDS011;64821;13.710;100.604;2023-07-13T04:18:51;7.68;;;2.50;;
76094;SDS011;64821;13.710;100.604;2023-07-13T04:19:55;7.97;;;2.58;;
76094;SDS011;64821;13.710;100.604;2023-07-13T04:20:58;10.17;;;3.07;;
76094;SDS011;64821;13.710;100.604;2023-07-13T04:22:02;8.77;;;2.80;;
76094;SDS011;64821;13.710;100.604;2023-07-13T04:23:06;8.45;;;2.47;;
76094;SDS011;64821;13.710;100.604;2023-07-13T04:24:10;8.85;;;2.80;;
76094;SDS011;64821;13.710;100.604;2023-07-13T04:25:14;7.13;;;2.40;;
76094;SDS011;64821;13.710;100.604;2023-07-13T04:26:18;6.80;;;2.50;;
76094;SDS011;64821;13.710;100.604;2023-07-13T04:27:23;6.82;;;2.50;;
76094;SDS011;64821;13.710;100.604;2023-07-13T04:28:27;8.05;;;2.75;;
76094;SDS011;64821;13.710;100.604;2023-07-13T04:29:31;7.35;;;2.70;;
76094;SDS011;64821;13.710;100.604;2023-07-13T04:30:35;8.35;;;2.60;;
76094;SDS011;64821;13.710;100.604;2023-07-13T04:31:39;9.07;;;2.87;;
76094;SDS011;64821;13.710;100.604;2023-07-13T04:32:42;8.35;;;2.60;;
76094;SDS011;64821;13.710;100.604;2023-07-13T04:33:46;8.27;;;2.70;;
76094;SDS011;64821;13.710;100.604;2023-07-13T04:34:50;8.45;;;2.70;;
76094;SDS011;64821;13.710;100.604;2023-07-13T04:35:54;8.90;;;2.97;;
76094;SDS011;64821;13.710;100.604;2023-07-13T04:36:59;7.07;;;2.40;;
76094;SDS011;64821;13.710;100.604;2023-07-13T04:38:02;6.32;;;2.35;;
76094;SDS011;64821;13.710;100.604;2023-07-13T04:39:06;7.30;;;2.53;;
76094;SDS011;64821;13.710;100.604;2023-07-13T04:40:10;6.70;;;2.17;;
76094;SDS011;64821;13.710;100.604;2023-07-13T04:41:15;7.15;;;2.70;;
76094;SDS011;64821;13.710;100.604;2023-07-13T04:42:19;7.23;;;2.33;;
76094;SDS011;64821;13.710;100.604;2023-07-13T04:43:24;6.35;;;2.40;;
76094;SDS011;64821;13.710;100.604;2023-07-13T04:44:28;7.72;;;2.20;;
76094;SDS011;64821;13.710;100.604;2023-07-13T04:45:32;6.85;;;2.40;;
76094;SDS011;64821;13.710;100.604;2023-07-13T04:46:37;7.50;;;2.60;;
76094;SDS011;64821;13.710;100.604;2023-07-13T04:47:41;7.27;;;2.50;;
76094;SDS011;64821;13.710;100.604;2023-07-13T04:48:45;7.13;;;2.67;;
76094;SDS011;64821;13.710;100.604;2023-07-13T04:49:49;9.50;;;2.33;;
76094;SDS011;64821;13.710;100.604;2023-07-13T04:50:56;8.88;;;2.80;;
76094;SDS011;64821;13.710;100.604;2023-07-13T04:52:00;6.68;;;2.67;;
76094;SDS011;64821;13.710;100.604;2023-07-13T04:53:04;7.13;;;2.63;;
76094;SDS011;64821;13.710;100.604;2023-07-13T04:54:08;7.07;;;2.40;;
76094;SDS011;64821;13.710;100.604;2023-07-13T04:55:12;7.38;;;2.60;;
76094;SDS011;64821;13.710;100.604;2023-07-13T04:56:16;7.30;;;2.78;;
76094;SDS011;64821;13.710;100.604;2023-07-13T20:01:31;7.32;;;2.20;;
76094;SDS011;64821;13.710;100.604;2023-07-13T20:02:35;8.57;;;2.07;;
76094;SDS011;64821;13.710;100.604;2023-07-13T20:03:39;7.55;;;1.75;;
76094;SDS011;64821;13.710;100.604;2023-07-13T20:04:42;6.15;;;2.13;;
76094;SDS011;64821;13.710;100.604;2023-07-13T20:05:46;6.43;;;1.80;;
76094;SDS011;64821;13.710;100.604;2023-07-13T20:06:50;5.30;;;1.73;;
76094;SDS011;64821;13.710;100.604;2023-07-13T20:07:55;6.97;;;1.93;;
76094;SDS011;64821;13.710;100.604;2023-07-13T20:09:00;6.90;;;1.55;;
76094;SDS011;64821;13.710;100.604;2023-07-13T20:10:15;5.50;;;1.83;;
76094;SDS011;64821;13.710;100.604;2023-07-13T20:11:22;5.13;;;1.70;;
76094;SDS011;64821;13.710;100.604;2023-07-13T20:12:25;6.80;;;1.90;;
76094;SDS011;64821;13.710;100.604;2023-07-13T20:13:29;5.43;;;1.80;;
76094;SDS011;64821;13.710;100.604;2023-07-13T20:14:33;6.22;;;1.80;;
76094;SDS011;64821;13.710;100.604;2023-07-13T20:15:37;6.25;;;2.03;;
76094;SDS011;64821;13.710;100.604;2023-07-13T20:16:42;5.53;;;1.75;;
76094;SDS011;64821;13.710;100.604;2023-07-13T20:17:46;5.30;;;1.80;;
76094;SDS011;64821;13.710;100.604;2023-07-13T20:18:51;5.90;;;1.80;;
76094;SDS011;64821;13.710;100.604;2023-07-13T20:19:55;6.38;;;1.73;;
76094;SDS011;64821;13.710;100.604;2023-07-13T20:21:01;5.03;;;1.70;;
76094;SDS011;64821;13.710;100.604;2023-07-13T20:22:07;5.85;;;1.70;;
76094;SDS011;64821;13.710;100.604;2023-07-13T20:23:13;5.68;;;1.60;;
76094;SDS011;64821;13.710;100.604;2023-07-13T20:24:18;5.77;;;1.60;;
76094;SDS011;64821;13.710;100.604;2023-07-13T20:25:23;5.53;;;1.65;;
76094;SDS011;64821;13.710;100.604;2023-07-13T20:26:28;7.35;;;1.95;;
76094;SDS011;64821;13.710;100.604;2023-07-13T20:27:32;6.40;;;1.75;;
76094;SDS011;64821;13.710;100.604;2023-07-13T20:28:36;6.03;;;1.77;;
76094;SDS011;64821;13.710;100.604;2023-07-13T20:29:40;6.70;;;1.90;;
76094;SDS011;64821;13.710;100.604;2023-07-13T20:30:44;5.88;;;1.70;;
76094;SDS011;64821;13.710;100.604;2023-07-13T20:31:51;6.68;;;1.90;;
76094;SDS011;64821;13.710;100.604;2023-07-13T20:32:55;7.97;;;1.95;;
76094;SDS011;64821;13.710;100.604;2023-07-13T20:33:59;6.13;;;1.60;;
76094;SDS011;64821;13.710;100.604;2023-07-13T20:35:03;5.67;;;1.80;;
76094;SDS011;64821;13.710;100.604;2023-07-13T20:36:09;6.95;;;1.77;;
76094;SDS011;64821;13.710;100.604;2023-07-13T20:37:21;6.18;;;1.75;;
76094;SDS011;64821;13.710;100.604;2023-07-13T20:38:32;6.07;;;1.88;;
76094;SDS011;64821;13.710;100.604;2023-07-13T20:39:35;5.30;;;1.65;;
76094;SDS011;64821;13.710;100.604;2023-07-13T20:40:39;6.27;;;1.80;;
76094;SDS011;64821;13.710;100.604;2023-07-13T20:41:46;6.15;;;1.60;;
76094;SDS011;64821;13.710;100.604;2023-07-13T20:42:50;5.95;;;1.70;;
76094;SDS011;64821;13.710;100.604;2023-07-13T20:43:53;5.70;;;1.60;;
76094;SDS011;64821;13.710;100.604;2023-07-13T20:44:57;5.85;;;1.60;;
76094;SDS011;64821;13.710;100.604;2023-07-13T20:46:01;5.33;;;1.60;;
76094;SDS011;64821;13.710;100.604;2023-07-13T20:47:12;5.43;;;1.60;;
76094;SDS011;64821;13.710;100.604;2023-07-13T20:48:20;6.35;;;1.58;;
76094;SDS011;64821;13.710;100.604;2023-07-13T20:49:31;6.25;;;1.70;;
76094;SDS011;64821;13.710;100.604;2023-07-13T20:50:34;6.50;;;1.63;;
76094;SDS011;64821;13.710;100.604;2023-07-13T20:51:38;6.40;;;1.80;;
76094;SDS011;64821;13.710;100.604;2023-07-13T20:52:42;6.18;;;1.50;;
76094;SDS011;64821;13.710;100.604;2023-07-13T20:53:46;6.35;;;1.75;;
76094;SDS011;64821;13.710;100.604;2023-07-13T20:54:50;6.00;;;1.65;;
76094;SDS011;64821;13.710;100.604;2023-07-13T20:55:53;6.20;;;1.70;;
76094;SDS011;64821;13.710;100.604;2023-07-13T20:56:57;7.10;;;1.63;;
76094;SDS011;64821;13.710;100.604;2023-07-13T20:58:01;5.75;;;1.70;;
76094;SDS011;64821;13.710;100.604;2023-07-13T20:59:05;5.75;;;1.77;;
76094;SDS011;64821;13.710;100.604;2023-07-13T21:00:12;6.20;;;1.60;;
76094;SDS011;64821;13.710;100.604;2023-07-13T21:01:18;5.43;;;1.80;;
76094;SDS011;64821;13.710;100.604;2023-07-13T21:02:29;6.60;;;1.50;;
76094;SDS011;64821;13.710;100.604;2023-07-13T21:03:35;6.70;;;1.58;;
76094;SDS011;64821;13.710;100.604;2023-07-13T21:04:39;6.20;;;1.60;;
76094;SDS011;64821;13.710;100.604;2023-07-13T21:05:43;5.70;;;1.48;;
76094;SDS011;64821;13.710;100.604;2023-07-13T21:06:47;6.55;;;1.75;;
76094;SDS011;64821;13.710;100.604;2023-07-13T21:07:51;5.90;;;1.70;;
76094;SDS011;64821;13.710;100.604;2023-07-13T21:08:55;7.43;;;2.03;;
76094;SDS011;64821;13.710;100.604;2023-07-13T21:09:58;5.97;;;1.80;;
76094;SDS011;64821;13.710;100.604;2023-07-13T21:11:02;6.72;;;1.70;;
76094;SDS011;64821;13.710;100.604;2023-07-13T21:12:06;6.13;;;1.50;;
76094;SDS011;64821;13.710;100.604;2023-07-13T21:13:10;5.20;;;1.50;;
76094;SDS011;64821;13.710;100.604;2023-07-13T21:14:14;6.05;;;2.20;;
76094;SDS011;64821;13.710;100.604;2023-07-13T21:15:19;5.57;;;1.35;;
76094;SDS011;64821;13.710;100.604;2023-07-13T21:16:25;6.30;;;1.83;;
76094;SDS011;64821;13.710;100.604;2023-07-13T21:17:32;5.75;;;1.80;;
76094;SDS011;64821;13.710;100.604;2023-07-13T21:18:37;7.37;;;1.73;;
76094;SDS011;64821;13.710;100.604;2023-07-13T21:19:41;6.60;;;1.70;;
76094;SDS011;64821;13.710;100.604;2023-07-13T21:20:46;5.78;;;1.63;;
76094;SDS011;64821;13.710;100.604;2023-07-13T21:21:51;7.30;;;1.50;;
76094;SDS011;64821;13.710;100.604;2023-07-13T21:22:55;7.10;;;1.60;;